createdAt,value
2019-01-25T00:02:13.915Z,49.37
2019-01-25T00:04:40.855Z,47.37
2019-01-25T00:07:07.797Z,51.03
2019-01-25T00:09:34.746Z,51.50
2019-01-25T00:12:01.667Z,50.37
2019-01-25T00:14:28.618Z,55.30
2019-01-25T00:16:55.558Z,49.20
2019-01-25T00:19:22.495Z,48.83
2019-01-25T00:21:49.456Z,52.10
2019-01-25T00:24:16.404Z,50.53
2019-01-25T00:26:43.332Z,55.50
2019-01-25T00:29:10.301Z,50.93
2019-01-25T00:31:37.253Z,47.07
2019-01-25T00:34:04.201Z,42.17
2019-01-25T00:36:31.168Z,46.40
2019-01-25T00:38:59.640Z,43.73
2019-01-25T00:41:26.621Z,42.30
2019-01-25T00:43:53.590Z,42.80
2019-01-25T00:46:20.532Z,39.10
2019-01-25T00:48:47.489Z,41.03
2019-01-25T00:51:14.443Z,40.93
2019-01-25T00:53:41.384Z,40.93
2019-01-25T00:56:08.348Z,35.00
2019-01-25T00:58:35.313Z,35.57
2019-01-25T01:01:02.240Z,35.10
2019-01-25T01:03:29.178Z,39.93
2019-01-25T01:05:56.135Z,33.63
2019-01-25T01:08:23.063Z,36.27
2019-01-25T01:10:50.012Z,35.37
2019-01-25T01:13:16.959Z,35.57
2019-01-25T01:15:43.889Z,37.03
2019-01-25T01:18:10.820Z,35.10
2019-01-25T01:20:37.773Z,37.63
2019-01-25T01:23:04.707Z,36.47
2019-01-25T01:25:31.631Z,34.07
2019-01-25T01:27:58.581Z,36.57
2019-01-25T01:30:25.524Z,37.40
2019-01-25T01:32:53.072Z,36.43
2019-01-25T01:35:20.063Z,34.57
2019-01-25T01:37:46.995Z,39.90
2019-01-25T01:40:22.081Z,34.80
2019-01-25T01:42:45.571Z,37.57
2019-01-25T01:45:12.537Z,36.53
2019-01-25T01:47:39.469Z,35.70
2019-01-25T01:50:08.525Z,34.63
2019-01-25T01:52:35.451Z,36.63
2019-01-25T01:55:02.426Z,33.53
2019-01-25T01:57:29.361Z,32.50
2019-01-25T01:59:56.295Z,35.10
2019-01-25T02:02:23.223Z,36.60
2019-01-25T02:04:50.228Z,32.37
2019-01-25T02:07:17.156Z,36.87
2019-01-25T02:09:44.089Z,34.30
2019-01-25T02:12:11.035Z,36.17
2019-01-25T02:14:37.969Z,36.93
2019-01-25T02:17:04.903Z,36.70
2019-01-25T02:19:31.858Z,36.90
2019-01-25T02:21:58.806Z,37.43
2019-01-25T02:24:25.752Z,35.20
2019-01-25T02:26:52.718Z,41.77
2019-01-25T02:29:19.643Z,37.17
2019-01-25T02:31:46.588Z,35.70
2019-01-25T02:34:13.549Z,39.20
2019-01-25T02:36:40.480Z,36.70
2019-01-25T02:39:07.786Z,40.20
2019-01-25T02:41:36.249Z,40.13
2019-01-25T02:44:03.274Z,37.13
2019-01-25T02:46:30.195Z,41.00
2019-01-25T02:48:57.146Z,43.83
2019-01-25T02:51:24.079Z,40.00
2019-01-25T02:53:51.022Z,42.97
2019-01-25T02:56:17.977Z,39.50
2019-01-25T02:58:44.916Z,40.50
2019-01-25T03:01:11.838Z,42.77
2019-01-25T03:03:38.780Z,39.17
2019-01-25T03:06:05.714Z,39.93
2019-01-25T03:08:32.647Z,40.40
2019-01-25T03:10:59.591Z,40.83
2019-01-25T03:13:26.539Z,39.33
2019-01-25T03:15:53.479Z,42.77
2019-01-25T03:18:20.435Z,40.90
2019-01-25T03:20:47.390Z,39.03
2019-01-25T03:23:14.317Z,45.87
2019-01-25T03:25:41.272Z,42.40
2019-01-25T03:28:08.228Z,45.33
2019-01-25T03:30:35.155Z,43.20
2019-01-25T03:33:02.113Z,45.27
2019-01-25T03:35:29.048Z,41.07
2019-01-25T03:37:55.980Z,43.20
2019-01-25T03:40:24.600Z,44.53
2019-01-25T03:42:52.955Z,48.13
2019-01-25T03:45:19.864Z,44.67
2019-01-25T03:47:46.812Z,45.80
2019-01-25T03:50:17.115Z,47.30
2019-01-25T03:52:44.012Z,42.97
2019-01-25T03:55:11.609Z,45.73
2019-01-25T03:57:38.560Z,46.43
2019-01-25T04:00:09.341Z,45.13
2019-01-25T04:02:36.292Z,45.97
2019-01-25T04:05:03.836Z,40.67
2019-01-25T04:07:30.759Z,43.87
2019-01-25T04:09:57.710Z,40.20
2019-01-25T04:12:24.669Z,39.70
2019-01-25T04:14:51.604Z,43.53
2019-01-25T04:17:18.567Z,42.23
2019-01-25T04:19:45.495Z,43.93
2019-01-25T04:22:12.436Z,42.80
2019-01-25T04:24:39.388Z,40.23
2019-01-25T04:27:06.331Z,47.10
2019-01-25T04:29:33.255Z,41.23
2019-01-25T04:32:00.252Z,40.57
2019-01-25T04:34:27.192Z,45.57
2019-01-25T04:36:54.121Z,45.13
2019-01-25T04:39:21.064Z,42.73
2019-01-25T04:41:47.995Z,45.87
2019-01-25T04:44:15.296Z,45.93
2019-01-25T04:46:42.267Z,49.53
2019-01-25T04:49:09.188Z,45.90
2019-01-25T04:51:36.124Z,48.93
2019-01-25T04:54:03.067Z,48.20
2019-01-25T04:56:31.673Z,43.37
2019-01-25T04:58:58.596Z,44.83
2019-01-25T05:01:25.543Z,52.00
2019-01-25T05:03:52.775Z,51.30
2019-01-25T05:06:19.709Z,49.23
2019-01-25T05:08:46.654Z,44.20
2019-01-25T05:11:19.920Z,48.20
2019-01-25T05:13:42.861Z,48.20
2019-01-25T05:16:12.918Z,51.67
2019-01-25T05:18:39.856Z,46.50
2019-01-25T05:21:06.779Z,49.50
2019-01-25T05:23:33.741Z,48.10
2019-01-25T05:26:00.672Z,49.13
2019-01-25T05:28:27.617Z,46.60
2019-01-25T05:30:59.912Z,47.03
2019-01-25T05:33:26.872Z,45.07
2019-01-25T05:35:53.795Z,47.47
2019-01-25T05:38:20.742Z,51.33
2019-01-25T05:40:47.726Z,53.20
2019-01-25T05:43:14.660Z,48.17
2019-01-25T05:45:43.396Z,50.37
2019-01-25T05:48:10.626Z,52.43
2019-01-25T05:50:37.257Z,49.77
2019-01-25T05:53:04.201Z,45.10
2019-01-25T05:55:31.145Z,46.43
2019-01-25T05:57:59.708Z,45.23
2019-01-25T06:00:29.565Z,55.93
2019-01-25T06:02:58.699Z,49.77
2019-01-25T06:05:25.629Z,52.27
2019-01-25T06:07:52.579Z,48.60
2019-01-25T06:10:19.532Z,52.80
2019-01-25T06:12:51.225Z,50.13
2019-01-25T06:15:18.171Z,52.10
2019-01-25T06:17:45.103Z,51.87
2019-01-25T06:20:12.039Z,49.67
2019-01-25T06:22:38.992Z,50.37
2019-01-25T06:25:05.979Z,52.40
2019-01-25T06:27:35.929Z,49.53
2019-01-25T06:30:04.285Z,54.63
2019-01-25T06:32:31.215Z,49.57
2019-01-25T06:34:58.165Z,54.07
2019-01-25T06:37:25.117Z,54.20
2019-01-25T06:39:52.048Z,46.43
2019-01-25T06:42:18.967Z,56.10
2019-01-25T06:44:45.928Z,54.77
2019-01-25T06:47:14.088Z,50.90
2019-01-25T06:49:41.032Z,51.67
2019-01-25T06:52:07.986Z,51.90
2019-01-25T06:54:34.920Z,52.53
2019-01-25T06:57:02.620Z,51.93
2019-01-25T06:59:35.531Z,53.87
2019-01-25T07:02:22.246Z,53.40
2019-01-25T07:04:49.192Z,49.63
2019-01-25T07:07:21.755Z,57.50
2019-01-25T07:09:48.674Z,55.13
2019-01-25T07:12:15.619Z,49.60
2019-01-25T07:14:42.559Z,49.30
2019-01-25T07:17:09.518Z,49.53
2019-01-25T07:19:37.846Z,50.90
2019-01-25T07:22:03.403Z,51.40
2019-01-25T07:24:30.349Z,52.00
2019-01-25T07:26:57.291Z,56.83
2019-01-25T07:29:24.320Z,52.20
2019-01-25T07:31:51.157Z,52.87
2019-01-25T07:34:18.089Z,54.67
2019-01-25T07:36:45.020Z,52.77
2019-01-25T07:39:20.084Z,60.23
2019-01-25T07:41:47.017Z,57.47
2019-01-25T07:44:13.964Z,51.97
2019-01-25T07:46:41.093Z,51.77
2019-01-25T07:49:08.596Z,47.43
2019-01-25T07:51:35.588Z,50.60
2019-01-25T07:54:02.535Z,51.53
2019-01-25T07:56:29.535Z,53.23
2019-01-25T07:58:56.441Z,48.37
2019-01-25T08:01:23.385Z,58.60
2019-01-25T08:03:50.318Z,50.90
2019-01-25T08:06:17.239Z,54.47
2019-01-25T08:08:44.208Z,53.93
2019-01-25T08:11:11.137Z,55.73
2019-01-25T08:13:38.079Z,55.10
2019-01-25T08:16:05.030Z,53.37
2019-01-25T08:18:31.960Z,55.63
2019-01-25T08:20:58.900Z,57.93
2019-01-25T08:23:25.852Z,58.67
2019-01-25T08:25:52.780Z,54.03
2019-01-25T08:28:19.693Z,56.37
2019-01-25T08:30:46.659Z,55.80
2019-01-25T08:33:13.580Z,53.53
2019-01-25T08:35:40.529Z,54.43
2019-01-25T08:38:07.496Z,51.23
2019-01-25T08:40:34.462Z,54.67
2019-01-25T08:43:01.361Z,52.27
2019-01-25T08:45:28.286Z,53.80
2019-01-25T08:47:55.221Z,57.40
2019-01-25T08:50:22.453Z,59.73
2019-01-25T08:52:49.443Z,57.47
2019-01-25T08:55:16.362Z,56.43
2019-01-25T08:57:43.284Z,47.67
2019-01-25T09:00:14.152Z,53.57
2019-01-25T09:02:41.084Z,48.70
2019-01-25T09:05:08.666Z,53.60
2019-01-25T09:07:35.621Z,44.60
2019-01-25T09:10:02.600Z,41.80
2019-01-25T09:12:29.536Z,48.50
2019-01-25T09:14:56.497Z,43.10
2019-01-25T09:17:23.428Z,42.50
2019-01-25T09:19:50.355Z,42.27
2019-01-25T09:22:17.291Z,45.60
2019-01-25T09:24:44.219Z,44.93
2019-01-25T09:27:11.140Z,39.07
2019-01-25T09:29:38.084Z,38.57
2019-01-25T09:32:05.007Z,38.67
2019-01-25T09:34:31.944Z,40.53
2019-01-25T09:36:58.906Z,38.97
2019-01-25T09:39:25.832Z,36.73
2019-01-25T09:41:52.780Z,36.63
2019-01-25T09:44:19.728Z,39.53
2019-01-25T09:46:46.644Z,38.00
2019-01-25T09:49:13.588Z,36.03
2019-01-25T09:51:40.703Z,36.37
2019-01-25T09:54:07.647Z,36.10
2019-01-25T09:56:34.640Z,38.53
2019-01-25T09:59:01.599Z,35.70
2019-01-25T10:01:28.523Z,33.33
2019-01-25T10:03:55.435Z,36.80
2019-01-25T10:06:22.406Z,34.10
2019-01-25T10:08:49.360Z,39.93
2019-01-25T10:11:16.316Z,30.80
2019-01-25T10:13:43.273Z,36.77
2019-01-25T10:16:10.195Z,37.40
2019-01-25T10:18:37.138Z,35.93
2019-01-25T10:21:04.089Z,34.60
2019-01-25T10:23:31.020Z,36.83
2019-01-25T10:25:57.959Z,36.80
2019-01-25T10:28:24.916Z,38.67
2019-01-25T10:30:51.853Z,40.17
2019-01-25T10:33:18.812Z,36.27
2019-01-25T10:35:45.760Z,35.03
2019-01-25T10:38:12.686Z,38.53
2019-01-25T10:40:39.629Z,44.37
2019-01-25T10:43:06.608Z,39.60
2019-01-25T10:45:35.429Z,35.70
2019-01-25T10:48:02.359Z,31.90
2019-01-25T10:50:29.300Z,35.50
2019-01-25T10:52:57.801Z,39.20
2019-01-25T10:55:24.727Z,36.07
2019-01-25T10:57:51.672Z,37.10
2019-01-25T11:00:18.619Z,33.23
2019-01-25T11:02:45.551Z,36.77
2019-01-25T11:05:15.739Z,34.30
2019-01-25T11:07:42.716Z,48.80
2019-01-25T11:10:09.646Z,42.57
2019-01-25T11:12:36.644Z,34.67
2019-01-25T11:15:05.096Z,34.30
2019-01-25T11:17:36.366Z,37.50
2019-01-25T11:19:59.031Z,38.20
2019-01-25T11:22:25.975Z,47.13
2019-01-25T11:24:52.968Z,39.63
2019-01-25T11:27:19.963Z,38.23
2019-01-25T11:29:46.844Z,42.57
2019-01-25T11:32:13.764Z,39.50
2019-01-25T11:34:40.729Z,43.50
2019-01-25T11:37:07.686Z,42.87
2019-01-25T11:39:34.601Z,40.23
2019-01-25T11:42:01.556Z,41.27
2019-01-25T11:44:28.493Z,43.43
2019-01-25T11:46:55.428Z,34.20
2019-01-25T11:49:22.373Z,36.33
2019-01-25T11:51:49.300Z,39.70
2019-01-25T11:54:17.445Z,35.23
2019-01-25T11:56:44.373Z,33.63
2019-01-25T11:59:11.310Z,34.33
2019-01-25T12:01:38.249Z,35.17
2019-01-25T12:04:05.213Z,40.47
2019-01-25T12:06:32.142Z,39.20
2019-01-25T12:08:59.084Z,34.20
2019-01-25T12:11:26.023Z,31.07
2019-01-25T12:13:52.966Z,33.00
2019-01-25T12:16:19.912Z,32.97
2019-01-25T12:18:46.863Z,24.20
2019-01-25T12:21:13.796Z,24.87
2019-01-25T12:23:40.729Z,27.40
2019-01-25T12:26:07.709Z,27.30
2019-01-25T12:28:34.650Z,22.83
2019-01-25T12:31:01.596Z,23.63
2019-01-25T12:33:28.547Z,27.57
2019-01-25T12:35:55.480Z,23.93
2019-01-25T12:38:22.426Z,23.33
2019-01-25T12:40:49.391Z,25.00
2019-01-25T12:43:23.722Z,24.67
2019-01-25T12:45:43.262Z,23.63
2019-01-25T12:48:10.231Z,24.17
2019-01-25T12:50:41.121Z,26.33
2019-01-25T12:53:08.077Z,27.73
2019-01-25T12:55:35.293Z,25.60
2019-01-25T12:58:02.241Z,26.77
2019-01-25T13:00:30.249Z,27.57
2019-01-25T13:02:57.196Z,26.30
2019-01-25T13:05:24.143Z,26.80
2019-01-25T13:07:51.081Z,26.20
2019-01-25T13:10:18.325Z,27.67
2019-01-25T13:12:45.257Z,26.00
2019-01-25T13:15:12.242Z,27.60
2019-01-25T13:17:39.215Z,30.40
2019-01-25T13:20:10.328Z,30.47
2019-01-25T13:22:37.252Z,30.90
2019-01-25T13:25:04.339Z,26.43
2019-01-25T13:27:31.253Z,27.70
2019-01-25T13:29:58.199Z,29.13
2019-01-25T13:32:25.136Z,28.47
2019-01-25T13:34:52.085Z,27.30
2019-01-25T13:37:19.013Z,28.77
2019-01-25T13:39:45.962Z,27.23
2019-01-25T13:42:12.881Z,25.93
2019-01-25T13:44:39.821Z,26.57
2019-01-25T13:47:06.798Z,28.03
2019-01-25T13:49:33.739Z,28.50
2019-01-25T13:52:00.709Z,27.73
2019-01-25T13:54:28.947Z,27.10
2019-01-25T13:56:56.271Z,28.40
2019-01-25T13:59:23.207Z,29.43
2019-01-25T14:01:50.159Z,29.17
2019-01-25T14:04:17.093Z,28.37
2019-01-25T14:06:44.025Z,26.83
2019-01-25T14:09:10.998Z,34.37
2019-01-25T14:11:37.904Z,28.27
2019-01-25T14:14:04.864Z,32.80
2019-01-25T14:16:31.820Z,25.03
2019-01-25T14:18:58.764Z,24.77
2019-01-25T14:21:25.704Z,28.20
2019-01-25T14:23:52.664Z,25.27
2019-01-25T14:26:19.596Z,27.57
2019-01-25T14:28:46.533Z,26.60
2019-01-25T14:31:13.477Z,25.60
2019-01-25T14:33:40.427Z,25.93
2019-01-25T14:36:07.372Z,23.37
2019-01-25T14:38:34.341Z,21.57
2019-01-25T14:41:01.271Z,25.47
2019-01-25T14:43:28.197Z,24.37
2019-01-25T14:45:56.595Z,22.37
2019-01-25T14:48:22.087Z,24.73
2019-01-25T14:50:49.017Z,24.93
2019-01-25T14:53:15.991Z,22.77
2019-01-25T14:55:42.928Z,25.20
2019-01-25T14:58:10.165Z,26.33
2019-01-25T15:00:37.117Z,24.73
2019-01-25T15:03:04.267Z,25.70
2019-01-25T15:05:31.215Z,22.20
2019-01-25T15:07:58.169Z,26.23
2019-01-25T15:10:25.099Z,24.83
2019-01-25T15:12:54.416Z,24.37
2019-01-25T15:15:21.371Z,24.47
2019-01-25T15:17:48.302Z,24.07
2019-01-25T15:20:17.508Z,27.17
2019-01-25T15:22:44.456Z,23.30
2019-01-25T15:25:11.420Z,27.27
2019-01-25T15:27:38.373Z,26.27
2019-01-25T15:30:06.755Z,27.27
2019-01-25T15:32:33.693Z,23.90
2019-01-25T15:35:00.682Z,22.70
2019-01-25T15:37:27.559Z,23.53
2019-01-25T15:39:54.488Z,23.77
2019-01-25T15:42:21.467Z,28.07
2019-01-25T15:44:48.424Z,24.30
2019-01-25T15:47:15.350Z,22.57
2019-01-25T15:49:42.294Z,23.80
2019-01-25T15:52:09.263Z,22.70
2019-01-25T15:54:36.193Z,25.40
2019-01-25T15:57:03.158Z,21.93
2019-01-25T15:59:31.540Z,27.10
2019-01-25T16:01:58.485Z,23.40
2019-01-25T16:04:25.427Z,51.53
2019-01-25T16:06:52.364Z,28.67
2019-01-25T16:09:23.359Z,25.77
2019-01-25T16:11:46.236Z,24.37
2019-01-25T16:14:17.892Z,22.47
2019-01-25T16:16:40.150Z,23.17
2019-01-25T16:19:07.072Z,23.40
2019-01-25T16:21:34.039Z,24.77
2019-01-25T16:24:00.974Z,21.47
2019-01-25T16:26:27.912Z,31.10
2019-01-25T16:28:54.880Z,22.63
2019-01-25T16:31:21.816Z,24.97
2019-01-25T16:33:48.760Z,19.47
2019-01-25T16:36:15.700Z,19.70
2019-01-25T16:38:42.656Z,18.60
2019-01-25T16:41:09.609Z,18.70
2019-01-25T16:43:36.548Z,17.93
2019-01-25T16:46:03.827Z,14.83
2019-01-25T16:48:30.425Z,13.40
2019-01-25T16:50:57.376Z,15.40
2019-01-25T16:53:24.305Z,13.30
2019-01-25T16:55:51.247Z,13.30
2019-01-25T16:58:18.195Z,12.30
2019-01-25T17:00:46.888Z,12.17
2019-01-25T17:03:13.897Z,9.40
2019-01-25T17:05:40.848Z,8.87
2019-01-25T17:08:07.821Z,10.70
2019-01-25T17:10:34.752Z,8.93
2019-01-25T17:13:01.696Z,10.10
2019-01-25T17:15:28.680Z,10.37
2019-01-25T17:17:55.613Z,10.40
2019-01-25T17:20:22.732Z,9.93
2019-01-25T17:22:49.672Z,17.27
2019-01-25T17:25:16.609Z,20.60
2019-01-25T17:27:43.576Z,24.87
2019-01-25T17:30:16.068Z,24.10
2019-01-25T17:32:43.005Z,24.13
2019-01-25T17:35:09.948Z,25.30
2019-01-25T17:37:36.905Z,24.23
2019-01-25T17:40:06.741Z,27.03
2019-01-25T17:42:33.680Z,24.83
2019-01-25T17:45:00.659Z,21.23
2019-01-25T17:47:28.173Z,21.87
2019-01-25T17:49:55.137Z,22.90
2019-01-25T17:52:22.060Z,22.53
2019-01-25T17:54:49.004Z,20.30
2019-01-25T17:57:15.965Z,20.87
2019-01-25T17:59:42.891Z,21.80
2019-01-25T18:02:10.089Z,26.40
2019-01-25T18:04:37.025Z,22.37
2019-01-25T18:07:03.952Z,19.97
2019-01-25T18:09:30.875Z,20.67
2019-01-25T18:11:57.825Z,19.23
2019-01-25T18:14:24.769Z,18.57
2019-01-25T18:16:51.706Z,26.17
2019-01-25T18:19:18.653Z,20.90
2019-01-25T18:21:45.583Z,20.40
2019-01-25T18:24:12.505Z,20.47
2019-01-25T18:26:39.447Z,22.50
2019-01-25T18:29:11.007Z,21.20
2019-01-25T18:31:37.932Z,22.13
2019-01-25T18:34:05.745Z,22.80
2019-01-25T18:36:32.661Z,19.73
2019-01-25T18:38:59.624Z,16.73
2019-01-25T18:41:26.571Z,20.63
2019-01-25T18:43:53.538Z,22.50
2019-01-25T18:46:20.464Z,22.37
2019-01-25T18:48:47.403Z,16.63
2019-01-25T18:51:14.343Z,25.07
2019-01-25T18:53:41.279Z,20.60
2019-01-25T18:56:10.881Z,20.37
2019-01-25T18:58:37.897Z,19.57
2019-01-25T19:01:04.845Z,17.40
2019-01-25T19:03:32.259Z,15.13
2019-01-25T19:05:59.183Z,20.30
2019-01-25T19:08:26.138Z,15.63
2019-01-25T19:10:53.103Z,13.90
2019-01-25T19:13:20.051Z,12.53
2019-01-25T19:15:47.012Z,12.47
2019-01-25T19:18:13.982Z,14.27
2019-01-25T19:20:40.917Z,11.53
2019-01-25T19:23:07.899Z,10.47
2019-01-25T19:25:34.923Z,11.00
2019-01-25T19:28:01.849Z,11.23
2019-01-25T19:30:32.467Z,10.03
2019-01-25T19:32:59.424Z,8.97
2019-01-25T19:35:26.361Z,11.43
2019-01-25T19:37:53.286Z,8.50
2019-01-25T19:40:21.108Z,9.37
2019-01-25T19:42:48.045Z,11.13
2019-01-25T19:45:14.976Z,8.93
2019-01-25T19:47:41.929Z,9.93
2019-01-25T19:50:11.040Z,11.30
2019-01-25T19:52:37.979Z,13.33
2019-01-25T19:55:07.195Z,8.03
2019-01-25T19:57:34.119Z,15.13
2019-01-25T20:00:01.123Z,15.10
2019-01-25T20:02:28.017Z,10.53
2019-01-25T20:04:55.556Z,11.10
2019-01-25T20:07:22.496Z,13.37
2019-01-25T20:09:49.455Z,12.00
2019-01-25T20:12:16.379Z,8.87
2019-01-25T20:14:43.318Z,8.27
2019-01-25T20:17:10.300Z,9.77
2019-01-25T20:19:37.245Z,13.77
2019-01-25T20:22:04.201Z,13.47
2019-01-25T20:24:31.156Z,12.73
2019-01-25T20:26:58.082Z,17.47
2019-01-25T20:29:25.061Z,12.53
2019-01-25T20:31:52.041Z,12.20
2019-01-25T20:34:18.988Z,12.17
2019-01-25T20:36:45.934Z,10.20
2019-01-25T20:39:12.864Z,8.73
2019-01-25T20:41:39.823Z,9.90
2019-01-25T20:44:06.799Z,9.13
2019-01-25T20:46:33.708Z,11.20
2019-01-25T20:49:00.635Z,9.97
2019-01-25T20:51:27.566Z,8.93
2019-01-25T20:53:54.559Z,10.43
2019-01-25T20:56:21.504Z,12.67
2019-01-25T20:58:48.438Z,8.43
2019-01-25T21:01:15.424Z,7.73
2019-01-25T21:03:42.375Z,7.03
2019-01-25T21:06:09.764Z,7.50
2019-01-25T21:08:36.732Z,11.90
2019-01-25T21:11:03.722Z,16.90
2019-01-25T21:13:30.676Z,17.47
2019-01-25T21:15:57.661Z,9.87
2019-01-25T21:18:24.608Z,8.60
2019-01-25T21:20:51.549Z,8.87
2019-01-25T21:23:18.499Z,7.23
2019-01-25T21:25:45.447Z,8.07
2019-01-25T21:28:12.403Z,8.23
2019-01-25T21:30:39.356Z,7.00
2019-01-25T21:33:06.281Z,6.40
2019-01-25T21:35:33.213Z,8.37
2019-01-25T21:38:00.165Z,7.77
2019-01-25T21:40:28.379Z,8.73
2019-01-25T21:42:55.306Z,6.57
2019-01-25T21:45:23.735Z,9.57
2019-01-25T21:47:50.675Z,8.77
2019-01-25T21:50:19.845Z,6.37
2019-01-25T21:52:46.809Z,6.37
2019-01-25T21:55:13.774Z,7.87
2019-01-25T21:57:40.716Z,7.93
2019-01-25T22:00:13.039Z,9.83
2019-01-25T22:02:39.975Z,8.37
2019-01-25T22:05:07.276Z,9.90
2019-01-25T22:07:34.740Z,8.47
2019-01-25T22:10:01.661Z,6.87
2019-01-25T22:12:28.587Z,9.37
2019-01-25T22:14:55.549Z,7.33
2019-01-25T22:17:22.479Z,6.87
2019-01-25T22:19:49.421Z,5.63
2019-01-25T22:22:16.371Z,8.87
2019-01-25T22:24:43.292Z,8.97
2019-01-25T22:27:10.221Z,9.20
2019-01-25T22:29:37.187Z,9.23
2019-01-25T22:32:04.116Z,8.40
2019-01-25T22:34:31.047Z,7.03
2019-01-25T22:36:57.998Z,8.13
2019-01-25T22:39:24.924Z,8.03
2019-01-25T22:41:51.865Z,11.70
2019-01-25T22:44:18.811Z,6.93
2019-01-25T22:46:45.767Z,9.27
2019-01-25T22:49:12.683Z,8.83
2019-01-25T22:51:39.808Z,8.90
2019-01-25T22:54:06.737Z,8.10
2019-01-25T22:56:33.668Z,7.27
2019-01-25T22:59:00.632Z,9.70
2019-01-25T23:01:30.891Z,8.10
2019-01-25T23:04:11.966Z,8.03
2019-01-25T23:06:44.423Z,7.03
2019-01-25T23:09:17.329Z,6.80
2019-01-25T23:11:44.280Z,9.23
2019-01-25T23:14:11.220Z,8.20
2019-01-25T23:16:38.196Z,7.87
2019-01-25T23:19:05.136Z,8.93
2019-01-25T23:21:32.101Z,8.13
2019-01-25T23:23:59.065Z,8.77
2019-01-25T23:26:26.017Z,8.67
2019-01-25T23:28:52.963Z,5.97
2019-01-25T23:31:19.904Z,8.80
2019-01-25T23:33:46.831Z,9.00
2019-01-25T23:36:13.809Z,5.63
2019-01-25T23:38:40.785Z,7.47
2019-01-25T23:41:07.742Z,8.00
2019-01-25T23:43:34.668Z,7.13
2019-01-25T23:46:01.611Z,8.83
2019-01-25T23:48:28.541Z,8.23
2019-01-25T23:50:55.506Z,7.80
2019-01-25T23:53:22.484Z,8.27
2019-01-25T23:55:49.451Z,8.63
2019-01-25T23:58:16.426Z,7.13
